Time;durP1;ratioP1;P1;durP2;ratioP2;P2;SDS_P1;SDS_P2;PMS_P1;PMS_P2;Temp;Humidity;BMP_temperature;BMP_pressure;BME280_temperature;BME280_humidity;BME280_pressure;Samples;Min_cycle;Max_cycle;Signal;HPM_P1;HPM_P2
2021/12/20 00:00:32;;;;;;;3.25;1.20;;;24.60;55.90;;;;;;4162301;28;20050;-48
2021/12/20 00:02:34;;;;;;;4.03;1.63;;;24.60;56.80;;;;;;4162647;28;20064;-48
2021/12/20 00:04:36;;;;;;;6.57;1.70;;;24.60;57.10;;;;;;4161973;28;20323;-48
2021/12/20 00:06:38;;;;;;;5.37;1.83;;;24.70;57.10;;;;;;4162608;28;20076;-48
2021/12/20 00:08:41;;;;;;;4.18;1.38;;;24.80;57.20;;;;;;4163588;28;20053;-48
2021/12/20 00:10:43;;;;;;;8.53;1.93;;;24.80;57.60;;;;;;4163462;28;20102;-49
2021/12/20 00:12:46;;;;;;;3.83;1.67;;;24.80;58.00;;;;;;4163469;28;20053;-53
2021/12/20 00:14:48;;;;;;;3.88;1.40;;;24.90;58.10;;;;;;4159433;28;20076;-46
2021/12/20 00:16:50;;;;;;;6.50;2.13;;;25.00;57.90;;;;;;4160489;28;20107;-47
2021/12/20 00:18:52;;;;;;;6.75;1.40;;;25.00;57.80;;;;;;4162491;28;20048;-50
2021/12/20 00:20:55;;;;;;;4.90;1.48;;;25.10;57.80;;;;;;4164413;28;20465;-46
2021/12/20 00:22:57;;;;;;;7.60;1.48;;;25.10;58.00;;;;;;4162855;28;20083;-42
2021/12/20 00:24:59;;;;;;;8.02;1.85;;;25.20;58.30;;;;;;4161379;28;20052;-51
2021/12/20 00:27:05;;;;;;;4.70;1.45;;;25.20;58.40;;;;;;4162616;28;20148;-49
2021/12/20 00:29:07;;;;;;;6.72;1.80;;;25.20;58.20;;;;;;4161897;28;20424;-50
2021/12/20 00:31:10;;;;;;;7.60;1.40;;;25.30;58.00;;;;;;4162622;28;20053;-50
2021/12/20 00:33:12;;;;;;;8.57;1.75;;;25.40;58.70;;;;;;4164484;28;20486;-47
2021/12/20 00:35:17;;;;;;;8.45;1.30;;;25.40;58.80;;;;;;4162313;28;21083;-47
2021/12/20 00:42:00;;;;;;;8.23;1.60;;;25.50;59.00;;;;;;4162421;28;20535;-53
2021/12/20 00:44:02;;;;;;;7.90;1.50;;;25.60;59.70;;;;;;4162097;28;20134;-51
2021/12/20 00:46:05;;;;;;;6.87;1.60;;;25.60;59.60;;;;;;4163967;28;21190;-51
2021/12/20 00:48:08;;;;;;;10.07;1.90;;;25.60;59.60;;;;;;4163110;28;20368;-48
2021/12/20 00:50:11;;;;;;;;;;;25.70;59.90;;;;;;4163426;28;20087;-48
2021/12/20 00:52:13;;;;;;;5.07;1.75;;;25.70;59.60;;;;;;4162742;28;19929;-51
2021/12/20 00:54:15;;;;;;;9.73;2.03;;;25.80;59.80;;;;;;4162855;28;20045;-49
2021/12/20 00:56:17;;;;;;;6.13;1.67;;;25.80;58.90;;;;;;4163027;28;20077;-50
2021/12/20 00:58:19;;;;;;;5.10;1.95;;;25.80;56.70;;;;;;4162504;28;20075;-51
2021/12/20 01:02:13;;;;;;;2.45;1.27;;;25.70;53.70;;;;;;4192015;27;20429;-51
2021/12/20 01:04:15;;;;;;;3.08;1.40;;;25.60;53.70;;;;;;4193940;28;20080;-51
2021/12/20 01:06:18;;;;;;;3.25;1.58;;;25.60;53.10;;;;;;4193207;28;20045;-51
2021/12/20 01:08:21;;;;;;;3.30;1.63;;;25.50;53.00;;;;;;4192508;28;20048;-53
2021/12/20 01:10:24;;;;;;;2.28;1.27;;;25.40;52.80;;;;;;4192194;28;20091;-51
2021/12/20 01:12:32;;;;;;;2.58;1.35;;;25.30;52.70;;;;;;4193477;28;20048;-50
2021/12/20 01:14:35;;;;;;;2.92;1.40;;;25.20;52.70;;;;;;4193216;28;20090;-50
2021/12/20 01:16:37;;;;;;;2.97;1.45;;;25.10;52.70;;;;;;4192692;28;20498;-50
2021/12/20 01:18:40;;;;;;;2.35;1.45;;;25.00;52.50;;;;;;4193058;28;20110;-50
2021/12/20 01:20:43;;;;;;;3.13;1.52;;;25.00;52.40;;;;;;4193137;28;20079;-55
2021/12/20 01:22:47;;;;;;;2.30;1.20;;;24.90;52.60;;;;;;4191058;28;20049;-50
2021/12/20 01:24:49;;;;;;;1.83;1.38;;;24.80;52.60;;;;;;4192736;28;20083;-54
2021/12/20 01:26:51;;;;;;;3.33;1.48;;;24.80;52.80;;;;;;4192701;28;20064;-50
2021/12/20 01:28:53;;;;;;;2.88;1.70;;;24.70;52.80;;;;;;4193738;28;20048;-55
2021/12/20 01:30:55;;;;;;;2.08;1.23;;;24.60;52.80;;;;;;4192026;28;20059;-54
2021/12/20 01:32:57;;;;;;;2.65;1.27;;;24.60;52.70;;;;;;4192144;28;20059;-53
2021/12/20 01:34:59;;;;;;;3.10;1.52;;;24.60;53.00;;;;;;4179238;28;20152;-48
2021/12/20 01:37:02;;;;;;;2.28;1.40;;;24.50;53.20;;;;;;4176221;28;20428;-50
2021/12/20 01:39:05;;;;;;;1.98;1.20;;;24.50;53.00;;;;;;4175451;28;20078;-51
2021/12/20 01:41:08;;;;;;;4.22;1.63;;;24.40;53.00;;;;;;4175283;28;20498;-52
2021/12/20 01:43:11;;;;;;;;;;;24.40;53.10;;;;;;4176501;28;20056;-47
2021/12/20 01:45:17;;;;;;;2.55;1.35;;;24.30;53.10;;;;;;4175344;28;19929;-49
2021/12/20 01:47:19;;;;;;;2.88;1.38;;;24.30;53.20;;;;;;4175241;28;20189;-51
2021/12/20 01:49:22;;;;;;;2.78;1.38;;;24.20;53.10;;;;;;4175103;28;20080;-49
2021/12/20 01:51:45;;;;;;;3.03;1.30;;;24.20;53.30;;;;;;4174491;28;20250;-50
2021/12/20 01:53:47;;;;;;;3.05;1.33;;;24.20;54.70;;;;;;4177019;28;20559;-47
2021/12/20 01:55:51;;;;;;;4.40;1.73;;;24.20;56.70;;;;;;4174705;28;20053;-49
2021/12/20 01:57:54;;;;;;;6.00;2.17;;;24.30;57.20;;;;;;4174991;28;20790;-50
2021/12/20 01:59:56;;;;;;;5.30;1.75;;;24.30;58.40;;;;;;4174191;28;20127;-52
2021/12/20 02:01:58;;;;;;;7.20;2.30;;;24.50;59.90;;;;;;4172251;28;20156;-49
2021/12/20 02:04:04;;;;;;;5.68;2.05;;;24.50;61.10;;;;;;4172928;28;20132;-54
2021/12/20 02:06:13;;;;;;;8.27;1.80;;;24.60;62.20;;;;;;4173159;28;20060;-49
2021/12/20 02:10:19;;;;;;;5.75;1.52;;;24.80;61.40;;;;;;4173495;28;20087;-52
2021/12/20 02:12:22;;;;;;;4.93;1.85;;;24.80;61.50;;;;;;4170460;28;20072;-54
2021/12/20 02:14:24;;;;;;;2.50;1.20;;;24.90;61.50;;;;;;4163551;28;20093;-51
2021/12/20 02:16:27;;;;;;;5.25;1.45;;;25.00;61.70;;;;;;4160765;28;20072;-50
2021/12/20 02:18:31;;;;;;;2.45;1.10;;;25.10;61.60;;;;;;4162669;28;20087;-52
2021/12/20 02:20:35;;;;;;;3.50;1.20;;;25.20;61.60;;;;;;4162882;28;20048;-53
2021/12/20 02:22:38;;;;;;;4.35;1.30;;;25.30;61.60;;;;;;4162837;28;20096;-52
2021/12/20 02:24:40;;;;;;;4.20;1.35;;;25.30;61.40;;;;;;4161619;28;20171;-49
2021/12/20 02:26:44;;;;;;;1.95;1.10;;;25.40;61.50;;;;;;4162611;28;20087;-53
2021/12/20 02:28:49;;;;;;;3.67;1.00;;;25.40;61.20;;;;;;4161861;28;20049;-47
2021/12/20 02:37:43;;;;;;;3.80;1.15;;;25.70;60.60;;;;;;4160716;28;20163;-54
2021/12/20 02:39:47;;;;;;;3.63;1.55;;;25.70;60.90;;;;;;4159543;28;20064;-59
2021/12/20 02:41:49;;;;;;;5.47;1.65;;;25.80;61.20;;;;;;4163311;28;20084;-60
2021/12/20 02:43:55;;;;;;;6.32;1.33;;;25.80;60.50;;;;;;4162030;28;20041;-60
2021/12/20 02:46:01;;;;;;;7.25;1.25;;;25.90;60.40;;;;;;4163419;28;20041;-59
2021/12/20 02:48:03;;;;;;;7.88;1.60;;;25.90;60.20;;;;;;4162411;28;20652;-60
2021/12/20 02:50:06;;;;;;;7.07;1.40;;;26.00;60.20;;;;;;4163437;28;20156;-59
2021/12/20 02:52:09;;;;;;;7.70;1.63;;;26.10;60.20;;;;;;4163595;28;20119;-59
2021/12/20 02:54:11;;;;;;;;;;;26.10;60.10;;;;;;4164770;28;20125;-58
2021/12/20 02:56:13;;;;;;;7.20;1.60;;;26.20;60.10;;;;;;4163586;28;19929;-57
2021/12/20 02:58:16;;;;;;;10.27;1.40;;;26.20;60.10;;;;;;4165697;28;20069;-56
2021/12/20 03:00:18;;;;;;;6.35;1.40;;;26.30;60.30;;;;;;4165677;28;20440;-58
2021/12/20 03:02:22;;;;;;;11.65;2.00;;;26.40;60.40;;;;;;4168798;28;20065;-56
2021/12/20 03:04:25;;;;;;;3.30;1.00;;;26.40;60.30;;;;;;4167487;28;20078;-56
2021/12/20 03:06:39;;;;;;;5.68;1.23;;;26.50;60.30;;;;;;4166927;28;20118;-57
2021/12/20 03:08:45;;;;;;;1.83;0.80;;;26.50;60.20;;;;;;4168022;28;20127;-55
2021/12/20 03:10:47;;;;;;;6.57;1.27;;;26.60;60.20;;;;;;4166795;28;20090;-57
2021/12/20 03:12:50;;;;;;;1.70;0.83;;;26.60;60.10;;;;;;4164373;28;20154;-59
2021/12/20 03:14:56;;;;;;;1.88;0.70;;;26.70;60.20;;;;;;4162289;28;20416;-58
2021/12/20 03:17:00;;;;;;;3.58;0.90;;;26.70;60.20;;;;;;4162589;28;20045;-58
2021/12/20 03:19:04;;;;;;;3.30;0.93;;;26.80;60.20;;;;;;4163344;28;20050;-59
2021/12/20 03:21:06;;;;;;;4.20;0.90;;;26.90;60.30;;;;;;4163485;28;20106;-56
2021/12/20 03:23:08;;;;;;;1.42;0.63;;;26.90;60.20;;;;;;4163046;28;20052;-58
2021/12/20 03:25:10;;;;;;;2.92;0.73;;;26.90;60.30;;;;;;4160838;28;20076;-58
2021/12/20 03:27:13;;;;;;;1.77;0.50;;;27.00;60.30;;;;;;4162710;28;20049;-59
2021/12/20 03:29:15;;;;;;;1.92;0.90;;;27.00;60.20;;;;;;4163529;28;20076;-60
2021/12/20 03:31:17;;;;;;;3.55;1.00;;;27.10;60.20;;;;;;4160704;28;20044;-56
2021/12/20 03:33:20;;;;;;;2.30;0.80;;;27.20;60.20;;;;;;4162767;28;20053;-56
2021/12/20 03:35:22;;;;;;;2.80;0.68;;;27.20;60.20;;;;;;4161713;28;20513;-58
2021/12/20 03:37:24;;;;;;;4.68;1.10;;;27.30;60.20;;;;;;4160355;28;20053;-58
2021/12/20 03:39:26;;;;;;;1.97;0.93;;;27.30;60.10;;;;;;4158645;28;20159;-57
2021/12/20 03:41:28;;;;;;;1.08;0.60;;;27.40;60.10;;;;;;4158773;28;20828;-57
2021/12/20 03:43:31;;;;;;;4.72;0.80;;;27.40;60.10;;;;;;4160393;28;20380;-56
2021/12/20 03:45:36;;;;;;;1.83;0.60;;;27.40;60.80;;;;;;4162795;28;20056;-55
2021/12/20 03:47:38;;;;;;;1.42;0.80;;;27.50;60.20;;;;;;4160687;28;20047;-58
2021/12/20 03:49:42;;;;;;;1.00;0.50;;;27.50;60.10;;;;;;4163629;28;20696;-56
2021/12/20 03:51:44;;;;;;;1.05;0.40;;;27.60;60.20;;;;;;4159119;28;20068;-57
2021/12/20 03:53:46;;;;;;;1.87;0.50;;;27.60;60.00;;;;;;4161104;28;20295;-58
2021/12/20 03:55:48;;;;;;;1.50;0.60;;;27.60;60.00;;;;;;4160413;28;20057;-59
2021/12/20 03:57:50;;;;;;;1.40;0.68;;;27.70;60.00;;;;;;4159388;28;20045;-57
2021/12/20 03:59:53;;;;;;;1.13;0.47;;;27.70;60.10;;;;;;4159948;28;20052;-57
2021/12/20 04:02:17;;;;;;;2.08;0.60;;;27.80;59.50;;;;;;4207013;27;20859;-59
2021/12/20 04:04:19;;;;;;;1.73;0.80;;;27.90;60.00;;;;;;4172538;28;20135;-58
2021/12/20 04:06:22;;;;;;;2.87;0.73;;;27.90;60.10;;;;;;4189522;28;20048;-59
2021/12/20 04:08:25;;;;;;;2.03;0.70;;;28.00;60.10;;;;;;4172609;28;20053;-59
2021/12/20 04:10:27;;;;;;;1.27;0.63;;;28.10;59.90;;;;;;4172475;28;20314;-59
2021/12/20 04:12:29;;;;;;;2.60;0.70;;;28.10;59.90;;;;;;4173676;28;20104;-59
2021/12/20 04:14:31;;;;;;;2.25;0.95;;;28.20;59.90;;;;;;4190967;28;20048;-59
2021/12/20 04:16:36;;;;;;;1.40;0.82;;;28.20;59.90;;;;;;4174779;28;20049;-58
2021/12/20 04:18:38;;;;;;;1.45;0.68;;;28.30;60.00;;;;;;4192630;28;20044;-60
2021/12/20 04:20:40;;;;;;;3.37;1.03;;;28.30;60.00;;;;;;4192205;28;20121;-59
2021/12/20 04:22:42;;;;;;;2.67;1.00;;;28.30;60.20;;;;;;4192923;28;20063;-58
2021/12/20 04:24:45;;;;;;;1.75;1.25;;;28.40;59.30;;;;;;4172294;28;20433;-59
2021/12/20 04:26:47;;;;;;;1.55;1.17;;;28.30;57.40;;;;;;4174566;28;20523;-59
2021/12/20 04:28:49;;;;;;;2.17;1.00;;;28.30;56.30;;;;;;4191161;28;20049;-60
2021/12/20 04:30:51;;;;;;;3.23;1.60;;;28.20;55.60;;;;;;4191210;28;20127;-59
2021/12/20 04:32:53;;;;;;;2.67;1.10;;;28.10;54.70;;;;;;4189681;28;20057;-59
2021/12/20 04:34:55;;;;;;;2.35;1.30;;;28.10;54.30;;;;;;4174126;28;20098;-61
2021/12/20 04:36:57;;;;;;;1.92;1.20;;;28.00;53.70;;;;;;4192529;28;20431;-59
2021/12/20 04:39:01;;;;;;;2.40;1.50;;;27.90;53.10;;;;;;4192296;28;20152;-61
2021/12/20 04:41:03;;;;;;;1.98;1.45;;;27.80;52.80;;;;;;4192486;28;20055;-58
2021/12/20 04:43:06;;;;;;;3.65;1.73;;;27.80;52.60;;;;;;4172018;28;20052;-58
2021/12/20 04:45:08;;;;;;;4.15;2.05;;;27.70;52.30;;;;;;4191943;28;20060;-59
2021/12/20 04:47:10;;;;;;;3.58;1.45;;;27.60;52.10;;;;;;4173513;28;20049;-59
2021/12/20 04:49:12;;;;;;;1.80;1.42;;;27.50;52.10;;;;;;4191480;28;20075;-59
2021/12/20 04:51:14;;;;;;;3.03;1.30;;;27.40;52.30;;;;;;4189138;28;20488;-59
2021/12/20 04:53:16;;;;;;;2.83;1.60;;;27.40;52.30;;;;;;4172831;28;20067;-58
2021/12/20 04:55:19;;;;;;;2.67;1.40;;;27.40;52.20;;;;;;4171443;28;20045;-59
2021/12/20 04:57:21;;;;;;;4.75;1.10;;;27.30;52.20;;;;;;4172322;28;20073;-59
2021/12/20 04:59:23;;;;;;;2.25;1.50;;;27.20;52.30;;;;;;4171797;28;20045;-59
2021/12/20 05:01:25;;;;;;;2.50;1.45;;;27.20;52.40;;;;;;4172349;28;20747;-57
2021/12/20 05:03:27;;;;;;;3.08;1.50;;;27.10;52.30;;;;;;4194886;28;20051;-59
2021/12/20 05:05:30;;;;;;;2.33;1.38;;;27.10;53.20;;;;;;4171656;28;20193;-59
2021/12/20 05:07:32;;;;;;;2.55;1.30;;;27.00;52.40;;;;;;4170983;28;20049;-58
2021/12/20 05:09:38;;;;;;;1.88;1.20;;;27.00;52.30;;;;;;4172421;28;20082;-60
2021/12/20 05:11:48;;;;;;;2.33;1.33;;;26.90;52.10;;;;;;4154884;28;20053;-58
2021/12/20 05:13:50;;;;;;;3.13;1.65;;;26.90;52.10;;;;;;4179176;28;20088;-59
2021/12/20 05:15:52;;;;;;;3.80;1.15;;;26.90;52.20;;;;;;4159972;28;20057;-58
2021/12/20 05:17:55;;;;;;;3.10;1.23;;;26.80;52.10;;;;;;4182798;28;20049;-58
2021/12/20 05:19:57;;;;;;;;;;;26.80;52.20;;;;;;4181704;28;20044;-58
2021/12/20 05:21:59;;;;;;;1.95;1.25;;;26.80;52.20;;;;;;4162738;28;19948;-59
2021/12/20 05:24:01;;;;;;;2.97;1.60;;;26.70;52.10;;;;;;4161482;28;20072;-58
2021/12/20 05:26:04;;;;;;;2.70;1.35;;;26.70;52.30;;;;;;4162466;28;20140;-58
2021/12/20 05:28:07;;;;;;;2.70;1.40;;;26.70;52.10;;;;;;4162697;28;20045;-59
2021/12/20 05:30:10;;;;;;;2.45;1.50;;;26.60;52.10;;;;;;4162606;28;20057;-61
2021/12/20 05:32:12;;;;;;;2.15;1.27;;;26.60;52.10;;;;;;4163167;28;20076;-60
2021/12/20 05:34:14;;;;;;;2.20;1.30;;;26.60;52.10;;;;;;4162572;28;20053;-61
2021/12/20 05:36:16;;;;;;;2.70;1.02;;;26.50;52.30;;;;;;4180040;28;20498;-61
2021/12/20 05:38:19;;;;;;;2.40;1.30;;;26.50;52.50;;;;;;4184584;28;20055;-60
2021/12/20 05:40:21;;;;;;;1.75;1.23;;;26.50;52.50;;;;;;4180925;28;20446;-60
2021/12/20 05:42:23;;;;;;;2.40;1.47;;;26.50;52.50;;;;;;4162698;28;20515;-63
2021/12/20 05:44:25;;;;;;;2.63;1.55;;;26.50;52.50;;;;;;4179795;28;20116;-61
2021/12/20 05:46:27;;;;;;;1.10;1.02;;;26.40;52.40;;;;;;4180061;28;20053;-61
2021/12/20 05:48:30;;;;;;;2.95;1.20;;;26.40;52.50;;;;;;4163128;28;20142;-58
2021/12/20 05:50:32;;;;;;;;;;;26.40;52.70;;;;;;4163052;28;20155;-61
2021/12/20 05:52:35;;;;;;;1.95;1.33;;;26.40;52.80;;;;;;4162469;28;19929;-64
2021/12/20 05:54:37;;;;;;;1.98;1.35;;;26.40;52.80;;;;;;4161661;28;20052;-62
2021/12/20 05:56:39;;;;;;;3.88;1.10;;;26.30;52.80;;;;;;4162790;28;20064;-60
2021/12/20 05:58:41;;;;;;;2.88;1.40;;;26.30;52.70;;;;;;4185770;28;20049;-65
2021/12/20 06:00:43;;;;;;;3.03;1.50;;;26.30;52.80;;;;;;4162413;28;20178;-63
2021/12/20 06:02:48;;;;;;;3.38;1.60;;;26.20;52.70;;;;;;4180265;28;20076;-61
2021/12/20 06:04:51;;;;;;;3.10;1.40;;;26.20;52.80;;;;;;4163813;28;20049;-61
2021/12/20 06:06:53;;;;;;;2.88;1.20;;;26.20;52.80;;;;;;4161397;28;20468;-58
2021/12/20 06:08:55;;;;;;;4.53;1.27;;;26.20;52.80;;;;;;4162113;28;20061;-60
2021/12/20 06:10:57;;;;;;;1.93;1.27;;;26.20;52.90;;;;;;4161960;28;20086;-60
2021/12/20 06:12:59;;;;;;;2.47;1.45;;;26.20;52.80;;;;;;4163557;28;20119;-61
2021/12/20 06:15:04;;;;;;;2.80;1.33;;;26.20;52.80;;;;;;4161516;28;20164;-61
2021/12/20 06:17:07;;;;;;;1.95;1.20;;;26.20;52.80;;;;;;4162678;28;20536;-58
2021/12/20 06:19:09;;;;;;;2.55;1.45;;;26.10;52.90;;;;;;4179223;28;20048;-57
2021/12/20 06:21:12;;;;;;;2.93;1.30;;;26.10;52.90;;;;;;4180388;28;20110;-57
2021/12/20 06:23:14;;;;;;;2.67;1.45;;;26.20;53.70;;;;;;4179239;28;20041;-57
2021/12/20 06:25:16;;;;;;;3.75;1.33;;;26.10;53.10;;;;;;4179397;28;21386;-60
2021/12/20 06:27:18;;;;;;;1.90;1.08;;;26.10;53.10;;;;;;4160977;28;20522;-57
2021/12/20 06:29:21;;;;;;;2.17;1.20;;;26.10;53.10;;;;;;4179912;28;20219;-57
2021/12/20 06:31:23;;;;;;;3.03;1.40;;;26.10;53.00;;;;;;4178797;28;20709;-57
2021/12/20 06:33:25;;;;;;;1.60;1.10;;;26.10;53.10;;;;;;4179917;28;20051;-58
2021/12/20 06:35:27;;;;;;;2.38;1.45;;;26.10;53.00;;;;;;4160622;28;20530;-57
2021/12/20 06:37:31;;;;;;;2.78;1.38;;;26.10;52.80;;;;;;4161693;28;20107;-57
2021/12/20 06:39:33;;;;;;;2.67;1.40;;;26.10;53.00;;;;;;4160640;28;20124;-58
2021/12/20 06:41:35;;;;;;;2.13;1.35;;;26.10;52.80;;;;;;4162697;28;20059;-58
2021/12/20 06:43:37;;;;;;;2.10;1.30;;;26.10;52.80;;;;;;4160311;28;20049;-60
2021/12/20 06:45:40;;;;;;;2.80;1.67;;;26.00;52.90;;;;;;4180150;28;20098;-61
2021/12/20 06:47:42;;;;;;;2.33;1.37;;;26.00;52.70;;;;;;4182505;28;20057;-62
2021/12/20 06:49:44;;;;;;;2.70;1.42;;;26.00;52.80;;;;;;4183729;28;20831;-59
2021/12/20 06:51:46;;;;;;;3.72;1.33;;;25.90;52.80;;;;;;4181100;28;20056;-61
2021/12/20 06:53:49;;;;;;;1.83;1.43;;;25.90;52.90;;;;;;4161398;28;20560;-62
2021/12/20 06:55:51;;;;;;;1.80;1.27;;;25.80;53.00;;;;;;4183220;28;20297;-62
2021/12/20 06:57:53;;;;;;;2.38;1.00;;;25.80;53.10;;;;;;4161074;28;20045;-55
2021/12/20 06:59:56;;;;;;;2.33;1.48;;;25.80;53.40;;;;;;4178347;28;20072;-59
2021/12/20 07:02:13;;;;;;;3.80;1.42;;;25.70;52.70;;;;;;4216369;27;20397;-58
2021/12/20 07:04:15;;;;;;;2.07;1.20;;;25.70;53.20;;;;;;4214637;28;20051;-59
2021/12/20 07:06:17;;;;;;;2.63;1.50;;;25.70;53.10;;;;;;4213109;28;20495;-57
2021/12/20 07:08:22;;;;;;;2.35;1.40;;;25.60;53.30;;;;;;4206594;28;20062;-56
2021/12/20 07:10:24;;;;;;;3.63;1.50;;;25.60;53.50;;;;;;4218083;28;20554;-59
2021/12/20 07:12:28;;;;;;;2.33;1.50;;;25.60;53.60;;;;;;4214097;28;20074;-60
2021/12/20 07:14:31;;;;;;;2.35;1.40;;;25.60;53.50;;;;;;4218517;28;20044;-60
2021/12/20 07:16:34;;;;;;;2.67;1.48;;;25.60;53.60;;;;;;4216267;28;20056;-61
2021/12/20 07:18:36;;;;;;;2.95;1.65;;;25.50;53.70;;;;;;4219253;28;20040;-60
2021/12/20 07:20:38;;;;;;;2.28;1.40;;;25.50;53.70;;;;;;4216384;28;20052;-59
2021/12/20 07:22:40;;;;;;;2.17;1.58;;;25.40;53.70;;;;;;4215914;28;20048;-59
2021/12/20 07:24:42;;;;;;;2.72;1.60;;;25.40;53.90;;;;;;4194684;28;20062;-60
2021/12/20 07:26:45;;;;;;;4.85;1.63;;;25.40;53.90;;;;;;4214076;28;20461;-59
2021/12/20 07:28:47;;;;;;;3.78;2.15;;;25.30;54.10;;;;;;4211548;28;20182;-54
2021/12/20 07:30:49;;;;;;;4.30;1.95;;;25.30;54.00;;;;;;4216184;28;20135;-57
2021/12/20 07:32:51;;;;;;;2.25;1.42;;;25.30;54.60;;;;;;4212650;28;20084;-55
2021/12/20 07:34:54;;;;;;;2.88;1.50;;;25.30;55.30;;;;;;4201147;28;20075;-54
2021/12/20 07:36:56;;;;;;;3.13;1.48;;;25.40;56.20;;;;;;4195286;28;20052;-55
2021/12/20 07:38:59;;;;;;;3.47;1.70;;;25.40;56.10;;;;;;4197630;28;20123;-55
2021/12/20 07:41:02;;;;;;;3.78;1.67;;;25.60;56.40;;;;;;4192040;28;20056;-58
2021/12/20 07:43:05;;;;;;;3.05;1.27;;;25.60;56.70;;;;;;4193967;28;20044;-57
2021/12/20 07:45:09;;;;;;;4.53;1.55;;;25.70;57.20;;;;;;4195152;28;20048;-56
2021/12/20 07:47:11;;;;;;;5.22;2.50;;;25.80;57.50;;;;;;4190122;28;20067;-56
2021/12/20 07:49:13;;;;;;;6.80;3.20;;;25.90;60.30;;;;;;4195280;28;20050;-57
2021/12/20 07:51:16;;;;;;;6.93;3.57;;;26.00;62.00;;;;;;4193772;28;20052;-57
2021/12/20 07:53:18;;;;;;;7.00;4.03;;;26.10;63.10;;;;;;4196609;28;20375;-57
2021/12/20 07:55:20;;;;;;;7.22;3.40;;;26.20;63.40;;;;;;4193308;28;20238;-56
2021/12/20 07:57:22;;;;;;;5.47;3.13;;;26.30;64.00;;;;;;4193857;28;20082;-58
2021/12/20 07:59:24;;;;;;;6.30;3.33;;;26.40;64.40;;;;;;4194999;28;20608;-57
2021/12/20 08:01:27;;;;;;;6.90;3.10;;;26.50;64.70;;;;;;4190678;28;20052;-57
2021/12/20 08:03:30;;;;;;;6.90;3.22;;;26.60;64.60;;;;;;4208323;28;21548;-57
2021/12/20 08:05:32;;;;;;;8.02;3.08;;;26.60;64.60;;;;;;4208797;28;20050;-57
2021/12/20 08:07:35;;;;;;;5.85;3.08;;;26.70;64.30;;;;;;4190178;28;20499;-58
2021/12/20 08:09:37;;;;;;;4.90;2.53;;;26.80;64.30;;;;;;4193973;28;20511;-56
2021/12/20 08:11:39;;;;;;;6.53;3.13;;;26.80;64.00;;;;;;4191935;28;20056;-57
2021/12/20 08:13:44;;;;;;;5.97;2.60;;;26.90;64.20;;;;;;4180543;28;20048;-56
2021/12/20 08:15:46;;;;;;;4.65;2.25;;;26.90;64.00;;;;;;4182930;28;20055;-57
2021/12/20 08:17:49;;;;;;;5.10;2.40;;;27.00;63.90;;;;;;4182665;28;20059;-57
2021/12/20 08:19:51;;;;;;;5.25;2.45;;;27.10;64.00;;;;;;4183638;28;20142;-58
2021/12/20 08:21:53;;;;;;;3.40;2.22;;;27.10;63.90;;;;;;4183989;28;20763;-57
2021/12/20 08:23:55;;;;;;;5.07;2.17;;;27.20;63.90;;;;;;4178587;28;20055;-57
2021/12/20 08:25:58;;;;;;;5.40;2.00;;;27.20;63.90;;;;;;4184743;28;20151;-57
2021/12/20 08:28:00;;;;;;;3.72;1.88;;;27.30;63.90;;;;;;4181537;28;20057;-59
2021/12/20 08:30:02;;;;;;;5.70;2.38;;;27.30;63.50;;;;;;4186104;28;20127;-59
2021/12/20 08:32:05;;;;;;;5.43;2.15;;;27.40;63.60;;;;;;4181449;28;20138;-59
2021/12/20 08:34:07;;;;;;;4.45;2.20;;;27.40;63.60;;;;;;4185829;28;20055;-59
2021/12/20 08:36:12;;;;;;;4.60;1.87;;;27.40;63.60;;;;;;4182482;28;20134;-58
2021/12/20 08:38:14;;;;;;;4.60;2.20;;;27.50;63.50;;;;;;4184759;28;20337;-58
2021/12/20 08:40:18;;;;;;;6.03;2.00;;;27.50;63.70;;;;;;4180465;28;20139;-58
2021/12/20 08:42:20;;;;;;;5.25;1.85;;;27.50;63.70;;;;;;4182555;28;20060;-57
2021/12/20 08:44:23;;;;;;;6.13;2.78;;;27.60;63.90;;;;;;4178317;28;20056;-59
2021/12/20 08:46:25;;;;;;;4.50;2.33;;;27.70;63.90;;;;;;4182744;28;20762;-58
2021/12/20 08:48:28;;;;;;;7.53;2.40;;;27.70;63.50;;;;;;4181591;28;20048;-57
2021/12/20 08:50:30;;;;;;;4.78;2.00;;;27.70;63.80;;;;;;4182783;28;20079;-59
2021/12/20 08:52:33;;;;;;;4.87;2.13;;;27.80;63.60;;;;;;4181111;28;20131;-58
2021/12/20 08:54:36;;;;;;;4.28;1.88;;;27.80;63.30;;;;;;4182629;28;20133;-59
2021/12/20 08:56:38;;;;;;;4.70;2.03;;;27.80;63.30;;;;;;4178718;28;20135;-60
2021/12/20 08:58:40;;;;;;;7.15;2.65;;;27.90;63.90;;;;;;4180673;28;20044;-58
2021/12/20 09:00:42;;;;;;;5.83;1.90;;;27.90;63.90;;;;;;4180338;28;20053;-58
2021/12/20 09:02:44;;;;;;;4.80;2.15;;;27.90;63.90;;;;;;4180831;28;20071;-57
2021/12/20 09:04:46;;;;;;;4.70;2.10;;;28.00;63.70;;;;;;4181594;28;20106;-57
2021/12/20 09:06:49;;;;;;;5.17;2.53;;;28.00;63.90;;;;;;4193362;22;20052;-72
2021/12/20 09:09:14;;;;;;;5.10;2.00;;;28.00;63.60;;;;;;4148793;28;20206;-70
2021/12/20 09:11:36;;;;;;;5.43;2.00;;;28.10;63.80;;;;;;4152096;28;20037;-71
2021/12/20 09:13:59;;;;;;;7.03;2.22;;;28.10;63.60;;;;;;4147129;28;20481;-70
2021/12/20 09:16:01;;;;;;;5.72;2.47;;;28.10;63.60;;;;;;4135319;28;20081;-71
2021/12/20 09:18:06;;;;;;;5.55;2.03;;;28.10;63.30;;;;;;4152351;28;20058;-71
2021/12/20 09:20:09;;;;;;;3.85;2.08;;;28.10;62.50;;;;;;4152188;28;20049;-73
2021/12/20 09:22:11;;;;;;;4.55;1.70;;;28.10;59.60;;;;;;4134195;28;20095;-72
2021/12/20 09:24:14;;;;;;;2.45;1.48;;;28.00;57.90;;;;;;4149972;28;20069;-72
2021/12/20 09:26:16;;;;;;;2.95;1.77;;;27.90;57.00;;;;;;4135576;28;20074;-74
2021/12/20 09:28:19;;;;;;;4.88;1.98;;;27.80;56.50;;;;;;4152370;28;20064;-73
2021/12/20 09:30:23;;;;;;;2.77;1.50;;;27.70;56.00;;;;;;4138253;28;20425;-70
2021/12/20 09:32:25;;;;;;;4.35;1.85;;;27.60;55.80;;;;;;4152572;28;20443;-71
2021/12/20 09:34:27;;;;;;;2.17;1.27;;;27.50;55.30;;;;;;4137560;28;20042;-72
2021/12/20 09:36:30;;;;;;;3.42;1.50;;;27.40;54.30;;;;;;4135504;28;20049;-71
2021/12/20 09:38:32;;;;;;;2.50;1.60;;;27.30;53.80;;;;;;4144704;28;20109;-73
2021/12/20 09:40:38;;;;;;;2.95;1.55;;;27.20;53.80;;;;;;4136851;28;20054;-71
2021/12/20 09:42:50;;;;;;;2.35;1.45;;;27.10;53.60;;;;;;4141534;28;20121;-72
2021/12/20 09:44:54;;;;;;;3.00;1.55;;;26.90;53.40;;;;;;4140296;28;20054;-72
2021/12/20 09:46:58;;;;;;;2.35;1.55;;;26.80;53.20;;;;;;4157236;28;20056;-72
2021/12/20 09:49:00;;;;;;;3.13;1.70;;;26.80;53.10;;;;;;4122265;28;20042;-71
2021/12/20 09:51:04;;;;;;;2.33;1.70;;;26.70;53.00;;;;;;4122671;28;20110;-71
2021/12/20 09:53:07;;;;;;;3.63;1.60;;;26.60;52.90;;;;;;4118511;28;20054;-72
2021/12/20 09:55:11;;;;;;;2.17;1.45;;;26.50;52.80;;;;;;4137391;28;20042;-72
2021/12/20 09:57:15;;;;;;;2.67;1.33;;;26.40;52.80;;;;;;4133817;28;20041;-72
2021/12/20 09:59:20;;;;;;;2.67;1.80;;;26.30;52.80;;;;;;4133012;28;20405;-72
2021/12/20 10:01:24;;;;;;;2.08;1.20;;;26.20;52.80;;;;;;4134325;28;20184;-71
2021/12/20 10:03:26;;;;;;;3.10;1.80;;;26.10;52.70;;;;;;4135410;28;20116;-72
2021/12/20 10:05:29;;;;;;;3.85;1.85;;;26.10;52.70;;;;;;4136384;28;20543;-72
2021/12/20 10:07:33;;;;;;;3.28;1.67;;;26.00;52.70;;;;;;4135675;28;20203;-73
2021/12/20 10:09:36;;;;;;;4.03;1.67;;;25.90;52.70;;;;;;4135798;28;20530;-73
2021/12/20 10:11:39;;;;;;;2.72;1.50;;;25.80;52.60;;;;;;4144442;28;20053;-72
2021/12/20 10:13:41;;;;;;;2.53;1.50;;;25.70;52.70;;;;;;4134280;28;20069;-72
2021/12/20 10:15:43;;;;;;;2.83;1.50;;;25.70;52.60;;;;;;4151071;28;20045;-71
2021/12/20 10:17:58;;;;;;;2.47;1.60;;;25.60;52.70;;;;;;4134897;28;20050;-72
2021/12/20 10:20:15;;;;;;;3.00;1.77;;;25.50;52.50;;;;;;4135898;28;20191;-72
2021/12/20 10:22:31;;;;;;;3.83;1.70;;;25.40;52.50;;;;;;4133228;28;20050;-71
2021/12/20 10:24:38;;;;;;;2.90;1.75;;;25.40;52.70;;;;;;4133690;28;20042;-73
2021/12/20 10:26:42;;;;;;;4.07;1.75;;;25.30;52.90;;;;;;4134674;28;20714;-73
2021/12/20 10:28:45;;;;;;;3.35;1.77;;;25.20;52.80;;;;;;4118324;28;20149;-73
2021/12/20 10:30:50;;;;;;;2.38;1.55;;;25.20;52.90;;;;;;4138626;28;20061;-73
2021/12/20 10:32:53;;;;;;;2.15;1.40;;;25.10;52.90;;;;;;4118695;28;20054;-73
2021/12/20 10:34:55;;;;;;;;;;;25.10;52.90;;;;;;4135267;28;20054;-74
2021/12/20 10:36:59;;;;;;;2.42;1.30;;;25.00;53.70;;;;;;4135233;28;20019;-72
2021/12/20 10:39:04;;;;;;;2.55;1.30;;;25.00;54.10;;;;;;4135377;28;20125;-73
2021/12/20 10:41:24;;;;;;;2.63;1.55;;;25.00;54.80;;;;;;4135275;28;20078;-72
2021/12/20 10:43:37;;;;;;;4.15;1.42;;;25.10;55.40;;;;;;4120618;28;20116;-72
2021/12/20 10:45:39;;;;;;;3.15;1.20;;;25.20;56.30;;;;;;4136225;28;20162;-73
2021/12/20 10:47:45;;;;;;;1.17;1.00;;;25.30;56.00;;;;;;4119736;28;20057;-73
2021/12/20 10:49:47;;;;;;;4.05;1.23;;;25.30;56.20;;;;;;4119251;28;20089;-72
2021/12/20 10:51:51;;;;;;;4.50;1.20;;;25.40;56.60;;;;;;4135506;28;20147;-74
2021/12/20 10:54:01;;;;;;;4.88;1.20;;;25.50;57.00;;;;;;4120242;28;20058;-71
2021/12/20 10:56:06;;;;;;;8.80;1.60;;;25.50;57.00;;;;;;4144058;28;20061;-72
2021/12/20 10:58:38;;;;;;;5.47;1.73;;;25.60;57.30;;;;;;4120620;28;20364;-73